Time;durP1;ratioP1;P1;durP2;ratioP2;P2;SDS_P1;SDS_P2;PMS_P1;PMS_P2;Temp;Humidity;BMP_temperature;BMP_pressure;BME280_temperature;BME280_humidity;BME280_pressure;Samples;Min_cycle;Max_cycle;Signal;HPM_P1;HPM_P2
2023/09/26 00:01:30;;;;;;;5.55;2.00;;;;;;;11.61;100.00;93273.56;5012576;28;20509;-79
2023/09/26 00:03:55;;;;;;;6.10;2.08;;;;;;;11.57;100.00;93271.75;5021927;28;20372;-78
2023/09/26 00:06:23;;;;;;;5.05;2.30;;;;;;;11.58;100.00;93265.47;5018584;28;20485;-78
2023/09/26 00:08:54;;;;;;;6.63;2.45;;;;;;;11.55;100.00;93266.81;5016796;28;20121;-78
2023/09/26 00:11:21;;;;;;;9.40;2.97;;;;;;;11.58;100.00;93273.34;5018310;28;20034;-78
2023/09/26 00:13:48;;;;;;;6.32;2.40;;;;;;;11.54;100.00;93262.59;5018725;28;20030;-76
2023/09/26 00:16:14;;;;;;;5.68;2.50;;;;;;;11.57;100.00;93261.25;5014675;28;20029;-77
2023/09/26 00:18:42;;;;;;;7.20;2.67;;;;;;;11.54;100.00;93256.56;5015766;28;20050;-79
2023/09/26 00:21:10;;;;;;;5.38;2.35;;;;;;;11.56;100.00;93263.09;5029176;28;20030;-79
2023/09/26 00:23:36;;;;;;;4.68;2.10;;;;;;;11.54;100.00;93254.72;5028529;28;20061;-79
2023/09/26 00:26:04;;;;;;;5.80;2.38;;;;;;;11.58;100.00;93254.97;5047217;28;20492;-79
2023/09/26 00:28:30;;;;;;;6.30;2.40;;;;;;;11.57;100.00;93256.81;5007543;28;20030;-78
2023/09/26 00:30:58;;;;;;;5.40;2.58;;;;;;;11.62;100.00;93256.00;5018751;28;20037;-78
2023/09/26 00:33:24;;;;;;;4.70;2.22;;;;;;;11.63;100.00;93262.81;5017590;28;20042;-78
2023/09/26 00:35:50;;;;;;;5.45;2.97;;;;;;;11.58;100.00;93263.63;5018224;28;20045;-79
2023/09/26 00:38:16;;;;;;;6.32;2.50;;;;;;;11.56;100.00;93262.34;5022812;28;20448;-79
2023/09/26 00:40:42;;;;;;;4.88;2.30;;;;;;;11.55;100.00;93258.94;5019132;28;20069;-79
2023/09/26 00:43:09;;;;;;;8.75;2.45;;;;;;;11.57;100.00;93250.78;5022492;28;20092;-78
2023/09/26 00:45:35;;;;;;;5.20;2.30;;;;;;;11.52;100.00;93248.19;5019397;28;20088;-79
2023/09/26 00:48:03;;;;;;;7.65;2.70;;;;;;;11.59;100.00;93253.91;5029297;28;20029;-79
2023/09/26 00:50:29;;;;;;;9.57;2.75;;;;;;;11.59;100.00;93256.53;5022844;28;20041;-78
2023/09/26 00:52:55;;;;;;;5.15;2.33;;;;;;;11.56;100.00;93257.09;5020544;28;20437;-78
2023/09/26 00:55:24;;;;;;;6.95;2.30;;;;;;;11.50;100.00;93252.94;5015559;28;20116;-79
2023/09/26 00:57:50;;;;;;;5.72;2.42;;;;;;;11.48;100.00;93255.81;5016640;28;20425;-78
2023/09/26 01:00:20;;;;;;;5.55;2.38;;;;;;;11.45;100.00;93245.88;5014720;28;20026;-77
2023/09/26 01:02:46;;;;;;;7.57;2.75;;;;;;;11.43;100.00;93240.91;5015895;28;20154;-78
2023/09/26 01:05:11;;;;;;;5.82;2.53;;;;;;;11.45;100.00;93244.03;5012471;28;20042;-79
2023/09/26 01:07:38;;;;;;;6.13;2.78;;;;;;;11.44;100.00;93242.47;4995732;28;20031;-78
2023/09/26 01:10:08;;;;;;;7.95;2.33;;;;;;;11.48;100.00;93244.53;5000611;28;20047;-79
2023/09/26 01:12:35;;;;;;;5.50;2.53;;;;;;;11.46;100.00;93243.00;5012942;28;20034;-78
2023/09/26 01:15:00;;;;;;;4.32;2.17;;;;;;;11.45;100.00;93230.16;5020513;28;20501;-78
2023/09/26 01:17:30;;;;;;;5.75;2.47;;;;;;;11.42;100.00;93231.47;5020226;28;20045;-78
2023/09/26 01:19:56;;;;;;;5.63;2.50;;;;;;;11.44;100.00;93234.63;5018409;28;20389;-78
2023/09/26 01:22:26;;;;;;;5.97;2.50;;;;;;;11.38;100.00;93225.22;5031904;28;20212;-78
2023/09/26 01:24:52;;;;;;;5.60;2.53;;;;;;;11.36;100.00;93224.69;5011131;28;20041;-79
2023/09/26 01:27:18;;;;;;;8.88;2.60;;;;;;;11.34;100.00;93226.03;4994784;28;20034;-79
2023/09/26 01:29:46;;;;;;;5.85;2.63;;;;;;;11.33;100.00;93230.50;5028539;28;20118;-78
2023/09/26 01:32:12;;;;;;;5.15;2.45;;;;;;;11.31;100.00;93232.59;5014005;28;20470;-78
2023/09/26 01:34:37;;;;;;;5.70;2.90;;;;;;;11.30;100.00;93227.63;4999246;28;20053;-79
2023/09/26 01:37:03;;;;;;;7.25;2.55;;;;;;;11.28;100.00;93229.72;5017122;28;20037;-79
2023/09/26 01:39:30;;;;;;;7.05;2.70;;;;;;;11.27;100.00;93228.94;5007368;28;20028;-78
2023/09/26 01:41:56;;;;;;;6.63;2.50;;;;;;;11.27;100.00;93222.94;5014317;28;20038;-78
2023/09/26 01:44:22;;;;;;;6.47;2.70;;;;;;;11.24;100.00;93219.78;4998044;28;20041;-79
2023/09/26 01:46:48;;;;;;;8.38;3.17;;;;;;;11.29;100.00;93226.84;5017319;28;20069;-78
2023/09/26 01:49:13;;;;;;;5.07;2.35;;;;;;;11.27;100.00;93222.94;5018412;28;20037;-78
2023/09/26 01:51:39;;;;;;;6.13;2.75;;;;;;;11.23;100.00;93222.69;5021662;28;20566;-78
2023/09/26 01:54:05;;;;;;;5.57;2.78;;;;;;;11.27;100.00;93233.41;5015748;28;20238;-78
2023/09/26 01:56:33;;;;;;;7.93;3.25;;;;;;;11.23;100.00;93230.53;5023593;28;20041;-78
2023/09/26 01:59:00;;;;;;;8.00;2.72;;;;;;;11.21;100.00;93222.16;5006255;28;20044;-79
2023/09/26 02:01:26;;;;;;;7.03;2.75;;;;;;;11.16;100.00;93216.97;5011361;28;20053;-79
2023/09/26 02:03:51;;;;;;;5.28;2.53;;;;;;;11.19;100.00;93222.47;5012803;28;20040;-79
2023/09/26 02:06:17;;;;;;;5.38;2.60;;;;;;;11.20;100.00;93224.00;5016187;28;20034;-79
2023/09/26 02:08:42;;;;;;;8.32;2.58;;;;;;;11.20;100.00;93221.38;5015219;28;20033;-80
2023/09/26 02:11:08;;;;;;;6.07;2.78;;;;;;;11.22;100.00;93224.53;5013714;28;20183;-79
2023/09/26 02:13:34;;;;;;;9.00;3.10;;;;;;;11.24;100.00;93221.66;5014050;28;20048;-79
2023/09/26 02:16:00;;;;;;;7.10;2.92;;;;;;;11.22;100.00;93215.88;5019444;28;20033;-79
2023/09/26 02:18:26;;;;;;;6.32;2.70;;;;;;;11.26;100.00;93219.53;5018464;28;20026;-78
2023/09/26 02:20:52;;;;;;;6.85;2.80;;;;;;;11.25;100.00;93220.56;4997766;28;20134;-78
2023/09/26 02:23:19;;;;;;;4.70;2.50;;;;;;;11.20;100.00;93221.38;5018122;28;20064;-78
2023/09/26 02:25:51;;;;;;;4.82;2.20;;;;;;;11.22;100.00;93215.88;5000513;28;20040;-79
2023/09/26 02:28:17;;;;;;;5.68;2.53;;;;;;;11.20;100.00;93224.00;5001149;28;20077;-78
2023/09/26 02:30:43;;;;;;;10.10;2.60;;;;;;;11.20;100.00;93223.22;5014766;28;20044;-78
2023/09/26 02:33:09;;;;;;;5.72;2.63;;;;;;;11.19;100.00;93219.03;5005610;28;20128;-78
2023/09/26 02:35:34;;;;;;;6.65;2.70;;;;;;;11.18;100.00;93225.34;5015863;28;20054;-78
2023/09/26 02:38:01;;;;;;;6.70;2.53;;;;;;;11.18;100.00;93220.09;5014057;28;20149;-78
2023/09/26 02:40:26;;;;;;;4.50;2.40;;;;;;;11.17;100.00;93224.56;5014353;28;20040;-78
2023/09/26 02:42:52;;;;;;;5.40;2.30;;;;;;;11.11;100.00;93209.91;5014695;28;20408;-77
2023/09/26 02:45:17;;;;;;;6.07;2.65;;;;;;;11.11;100.00;93211.75;5017646;28;20042;-77
2023/09/26 02:47:44;;;;;;;6.38;2.70;;;;;;;11.11;100.00;93214.38;5003356;28;20042;-78
2023/09/26 02:50:10;;;;;;;5.45;2.60;;;;;;;11.13;100.00;93218.28;5016340;28;20040;-78
2023/09/26 02:52:40;;;;;;;4.93;2.38;;;;;;;11.06;100.00;93209.19;5015846;28;20041;-80
2023/09/26 02:55:07;;;;;;;8.18;2.42;;;;;;;11.10;100.00;93221.47;5003560;28;20157;-79
2023/09/26 02:57:34;;;;;;;6.32;2.60;;;;;;;11.07;100.00;93218.59;5008879;28;20404;-78
2023/09/26 03:00:14;;;;;;;6.15;2.75;;;;;;;11.06;100.00;93209.97;5012397;28;20033;-80
2023/09/26 03:02:40;;;;;;;5.38;2.55;;;;;;;11.05;100.00;93216.22;5022370;28;20045;-79
2023/09/26 03:05:05;;;;;;;7.28;2.35;;;;;;;11.04;100.00;93214.69;5013767;28;20026;-80
2023/09/26 03:07:31;;;;;;;5.47;2.30;;;;;;;11.03;100.00;93206.03;5014488;28;20038;-79
2023/09/26 03:09:57;;;;;;;5.72;2.55;;;;;;;11.03;100.00;93203.44;5014207;28;20100;-79
2023/09/26 03:12:22;;;;;;;5.88;2.50;;;;;;;11.02;100.00;93198.44;5013381;28;20117;-79
2023/09/26 03:14:48;;;;;;;5.07;2.22;;;;;;;10.98;100.00;93198.19;5017214;28;20069;-79
2023/09/26 03:17:14;;;;;;;5.28;2.40;;;;;;;11.00;100.00;93192.69;5006256;28;20091;-80
2023/09/26 03:19:40;;;;;;;8.48;2.85;;;;;;;10.99;100.00;93196.38;5014760;28;20117;-79
2023/09/26 03:22:06;;;;;;;6.65;2.65;;;;;;;10.97;100.00;93198.47;5017715;28;20050;-79
2023/09/26 03:24:32;;;;;;;5.60;2.25;;;;;;;10.95;100.00;93193.50;5014007;28;20041;-78
2023/09/26 03:26:57;;;;;;;6.88;2.67;;;;;;;10.92;100.00;93183.56;5018301;28;20088;-79
2023/09/26 03:29:23;;;;;;;6.70;2.60;;;;;;;10.94;100.00;93184.09;5013457;28;20038;-79
2023/09/26 03:31:50;;;;;;;5.88;2.53;;;;;;;10.94;100.00;93194.56;5014296;28;20072;-79
2023/09/26 03:34:15;;;;;;;6.82;2.60;;;;;;;10.93;100.00;93194.84;5013866;28;20042;-79
2023/09/26 03:36:41;;;;;;;7.35;2.95;;;;;;;10.94;100.00;93188.53;5014248;28;20042;-79
2023/09/26 03:39:06;;;;;;;5.35;2.47;;;;;;;10.90;100.00;93183.06;5007603;28;20176;-79
2023/09/26 03:41:33;;;;;;;5.63;2.70;;;;;;;10.94;100.00;93189.34;4977548;28;20110;-79
2023/09/26 03:43:59;;;;;;;5.13;2.47;;;;;;;10.92;100.00;93186.19;5014845;28;20101;-78
2023/09/26 03:46:24;;;;;;;6.10;2.53;;;;;;;10.90;100.00;93180.44;5012496;28;20093;-78
2023/09/26 03:48:50;;;;;;;8.23;2.63;;;;;;;10.94;100.00;93189.34;5014016;28;20039;-79
2023/09/26 03:51:16;;;;;;;6.18;2.78;;;;;;;10.95;100.00;93196.13;5009347;28;20493;-78
2023/09/26 03:53:42;;;;;;;6.65;2.67;;;;;;;10.92;100.00;93191.44;5014072;28;20543;-78
2023/09/26 03:56:08;;;;;;;5.93;2.33;;;;;;;10.93;100.00;93182.50;5022845;28;20080;-79
2023/09/26 03:58:36;;;;;;;6.47;2.75;;;;;;;10.92;100.00;93186.19;5014679;28;20045;-78
2023/09/26 04:01:12;;;;;;;5.78;2.50;;;;;;;10.93;100.00;93185.13;5015072;28;20049;-79
2023/09/26 04:03:46;;;;;;;6.68;2.70;;;;;;;10.92;100.00;93193.25;5006156;28;20038;-79
2023/09/26 04:06:12;;;;;;;6.97;2.85;;;;;;;10.92;100.00;93191.44;5026253;28;20034;-78
2023/09/26 04:08:38;;;;;;;6.15;2.90;;;;;;;10.90;100.00;93190.91;5015007;28;20026;-79
2023/09/26 04:11:04;;;;;;;6.05;2.85;;;;;;;10.86;100.00;93197.75;5015477;28;20042;-79
2023/09/26 04:13:29;;;;;;;6.28;2.60;;;;;;;10.87;100.00;93199.31;5015729;28;20073;-79
2023/09/26 04:15:55;;;;;;;6.50;2.83;;;;;;;10.86;100.00;93189.88;5013751;28;20482;-79
2023/09/26 04:18:22;;;;;;;7.05;2.65;;;;;;;10.90;100.00;93197.97;5029697;28;20037;-78
2023/09/26 04:20:51;;;;;;;5.50;2.67;;;;;;;10.90;100.00;93197.97;5014102;28;20087;-79
2023/09/26 04:23:17;;;;;;;5.63;2.28;;;;;;;10.84;100.00;93184.91;4996502;28;20087;-79
2023/09/26 04:25:42;;;;;;;5.50;2.42;;;;;;;10.83;100.00;93172.88;5013271;28;20052;-79
2023/09/26 04:28:08;;;;;;;6.43;2.72;;;;;;;10.87;100.00;93183.59;5014910;28;20041;-79
2023/09/26 04:30:38;;;;;;;5.05;2.45;;;;;;;10.88;100.00;93189.63;5013226;28;20509;-79
2023/09/26 04:33:05;;;;;;;7.13;3.20;;;;;;;10.86;100.00;93189.13;5013376;28;20038;-79
2023/09/26 04:35:30;;;;;;;4.72;2.42;;;;;;;10.80;100.00;93176.03;4997137;28;20050;-79
2023/09/26 04:37:56;;;;;;;9.63;3.13;;;;;;;10.81;100.00;93180.22;5016013;28;20100;-79
2023/09/26 04:40:22;;;;;;;5.93;2.67;;;;;;;10.78;100.00;93185.19;5019333;28;20110;-79
2023/09/26 04:42:48;;;;;;;6.95;2.90;;;;;;;10.79;100.00;93192.03;5014063;28;20069;-80
2023/09/26 04:45:14;;;;;;;7.55;3.00;;;;;;;10.80;100.00;93188.34;4992130;28;20037;-79
2023/09/26 04:47:40;;;;;;;6.20;2.70;;;;;;;10.80;100.00;93183.09;5007921;28;20040;-78
2023/09/26 04:50:06;;;;;;;6.03;2.90;;;;;;;10.80;100.00;93185.72;5010732;28;20678;-79
2023/09/26 04:52:32;;;;;;;9.88;3.33;;;;;;;10.80;100.00;93186.50;5018005;28;20112;-77
2023/09/26 04:54:57;;;;;;;6.50;3.50;;;;;;;10.81;100.00;93187.31;5011357;28;20525;-78
2023/09/26 04:57:23;;;;;;;7.70;2.90;;;;;;;10.81;100.00;93188.06;5011021;28;20042;-79
2023/09/26 04:59:49;;;;;;;6.13;2.88;;;;;;;10.81;100.00;93192.53;5012090;28;20044;-78
2023/09/26 05:02:14;;;;;;;7.25;3.00;;;;;;;10.84;100.00;93194.59;5009820;28;20057;-79
2023/09/26 05:04:41;;;;;;;8.73;3.00;;;;;;;10.82;100.00;93191.47;4998913;28;20048;-79
2023/09/26 05:07:09;;;;;;;6.55;3.08;;;;;;;10.83;100.00;93193.06;5027287;28;20050;-80
2023/09/26 05:09:38;;;;;;;8.35;3.03;;;;;;;10.81;100.00;93195.16;5019132;28;20094;-82
2023/09/26 05:12:04;;;;;;;5.88;2.70;;;;;;;10.83;100.00;93203.53;5022018;28;20121;-80
2023/09/26 05:14:29;;;;;;;5.63;2.90;;;;;;;10.84;100.00;93197.22;5022966;28;20042;-80
2023/09/26 05:16:55;;;;;;;7.75;3.22;;;;;;;10.84;100.00;93197.22;5015708;28;20441;-80
2023/09/26 05:19:21;;;;;;;5.80;2.75;;;;;;;10.83;100.00;93198.28;5015711;28;20042;-80
2023/09/26 05:21:46;;;;;;;5.43;2.50;;;;;;;10.87;100.00;93207.16;5019874;28;20405;-79
2023/09/26 05:24:12;;;;;;;4.90;2.60;;;;;;;10.88;100.00;93200.88;5031563;28;20036;-80
2023/09/26 05:26:37;;;;;;;5.68;2.60;;;;;;;10.91;100.00;93204.78;5017726;28;20038;-79
2023/09/26 05:29:03;;;;;;;5.60;2.67;;;;;;;10.91;100.00;93196.94;5016543;28;20052;-79
2023/09/26 05:31:30;;;;;;;6.03;2.90;;;;;;;11.09;100.00;93206.00;4999837;28;20058;-80
2023/09/26 05:33:56;;;;;;;7.05;2.90;;;;;;;11.71;100.00;93201.91;5027808;28;20091;-79
2023/09/26 05:36:22;;;;;;;6.25;2.60;;;;;;;12.23;100.00;93205.66;5015253;28;20038;-80
2023/09/26 05:38:48;;;;;;;6.13;2.78;;;;;;;12.34;100.00;93205.53;5015564;28;20057;-78
2023/09/26 05:41:14;;;;;;;5.90;3.10;;;;;;;12.19;100.00;93198.59;5023564;28;20409;-78
2023/09/26 05:43:39;;;;;;;7.90;3.00;;;;;;;12.30;100.00;93207.94;5023736;28;20033;-79
2023/09/26 05:46:05;;;;;;;9.15;2.92;;;;;;;13.03;100.00;93206.81;5023506;28;20094;-79
2023/09/26 05:48:31;;;;;;;6.78;2.97;;;;;;;13.46;100.00;93206.75;5016895;28;20092;-78
2023/09/26 05:51:02;;;;;;;7.43;2.58;;;;;;;14.23;100.00;93210.00;5015189;28;20034;-79
2023/09/26 05:53:29;;;;;;;6.25;2.70;;;;;;;14.90;100.00;93196.38;5014090;28;20034;-80
2023/09/26 05:55:55;;;;;;;5.22;2.90;;;;;;;15.54;95.64;93201.63;5017329;28;20030;-78
2023/09/26 05:58:20;;;;;;;8.05;2.58;;;;;;;16.08;93.48;93197.19;5020179;28;21934;-80
2023/09/26 06:00:46;;;;;;;5.38;2.72;;;;;;;16.71;87.15;93200.56;5023908;28;20037;-79
2023/09/26 06:03:15;;;;;;;5.28;2.60;;;;;;;17.30;82.30;93194.19;5013846;28;20057;-81
2023/09/26 06:05:42;;;;;;;5.93;2.70;;;;;;;17.73;78.52;93194.16;5025109;28;20420;-80
2023/09/26 06:08:08;;;;;;;6.70;2.60;;;;;;;18.08;76.58;93197.59;5026113;28;20060;-80
2023/09/26 06:10:33;;;;;;;6.78;2.90;;;;;;;18.66;73.94;93200.66;5026322;28;20061;-80
2023/09/26 06:12:59;;;;;;;6.93;2.70;;;;;;;19.24;70.52;93193.03;5025599;28;20804;-80
2023/09/26 06:15:24;;;;;;;4.93;2.50;;;;;;;19.62;65.35;93207.31;5026746;28;20038;-79
2023/09/26 06:17:57;;;;;;;8.15;2.80;;;;;;;20.02;64.78;93206.81;5028089;28;20505;-80
2023/09/26 06:20:23;;;;;;;4.88;2.50;;;;;;;20.27;63.77;93205.03;5021514;28;20037;-80
2023/09/26 06:22:49;;;;;;;5.80;2.55;;;;;;;20.83;60.38;93210.69;5017488;28;20042;-79
2023/09/26 06:25:14;;;;;;;6.47;2.80;;;;;;;21.18;59.98;93212.88;5031223;28;20034;-80
2023/09/26 06:27:40;;;;;;;5.53;2.60;;;;;;;21.65;56.94;93217.69;5021464;28;20041;-80
2023/09/26 06:30:06;;;;;;;6.45;2.75;;;;;;;21.79;59.55;93214.66;5035974;28;20030;-82
2023/09/26 06:32:34;;;;;;;7.00;2.80;;;;;;;22.61;54.10;93219.53;5016816;28;20059;-80
2023/09/26 06:35:00;;;;;;;5.68;2.60;;;;;;;22.97;54.03;93215.06;5023816;28;20070;-80
2023/09/26 06:37:25;;;;;;;8.77;2.70;;;;;;;23.66;51.44;93217.34;4992856;28;20038;-81
2023/09/26 06:39:51;;;;;;;5.13;2.95;;;;;;;23.77;52.45;93218.38;5013970;28;20108;-81
2023/09/26 06:42:17;;;;;;;5.57;2.58;;;;;;;23.81;51.74;93207.75;5049416;28;20056;-82
2023/09/26 06:44:42;;;;;;;5.72;2.70;;;;;;;24.08;50.35;93211.34;5015903;28;20042;-82
2023/09/26 06:47:08;;;;;;;9.75;2.50;;;;;;;24.36;48.76;93213.00;5015462;28;20037;-81
2023/09/26 06:49:34;;;;;;;7.88;2.80;;;;;;;24.94;47.22;93212.84;5026633;28;20057;-80
2023/09/26 06:52:01;;;;;;;6.15;2.97;;;;;;;24.91;49.37;93216.25;5018640;28;20096;-81
2023/09/26 06:54:26;;;;;;;6.40;2.60;;;;;;;25.60;44.28;93210.78;5015235;28;20045;-81
2023/09/26 06:56:52;;;;;;;7.57;2.60;;;;;;;25.94;44.60;93214.31;5026353;28;20037;-81
2023/09/26 06:59:17;;;;;;;6.63;2.70;;;;;;;25.61;43.28;93215.00;5025057;28;20044;-81
2023/09/26 07:01:43;;;;;;;4.80;2.80;;;;;;;25.92;45.39;93210.47;5026332;28;20106;-81
2023/09/26 07:04:14;;;;;;;6.82;2.70;;;;;;;26.18;44.82;93210.34;5018762;28;20054;-80
2023/09/26 07:06:45;;;;;;;4.68;2.35;;;;;;;26.53;44.83;93213.78;5019877;28;20040;-79
2023/09/26 07:09:12;;;;;;;7.05;2.67;;;;;;;26.59;42.57;93209.66;5016254;28;20030;-79
2023/09/26 07:11:40;;;;;;;6.35;2.88;;;;;;;25.35;46.85;93213.09;5008239;28;20038;-80
2023/09/26 07:14:05;;;;;;;5.95;2.95;;;;;;;25.47;48.80;93212.16;5017131;28;20034;-81
2023/09/26 07:16:33;;;;;;;8.23;2.65;;;;;;;25.12;48.09;93213.13;5020809;28;20109;-80
2023/09/26 07:19:00;;;;;;;4.97;2.60;;;;;;;24.12;50.71;93212.19;5000850;28;20058;-81
2023/09/26 07:21:26;;;;;;;5.70;2.60;;;;;;;22.43;57.22;93210.31;5016359;28;20042;-79
2023/09/26 07:23:51;;;;;;;6.85;3.00;;;;;;;21.83;62.43;93221.63;5020410;28;20060;-80
2023/09/26 07:26:18;;;;;;;4.60;2.30;;;;;;;21.48;60.36;93212.63;5021161;28;20428;-79
2023/09/26 07:28:44;;;;;;;9.20;2.50;;;;;;;20.47;65.99;93220.13;5009103;28;20037;-79
2023/09/26 07:31:18;;;;;;;8.40;3.30;;;;;;;20.03;67.73;93217.13;5024589;28;20046;-79
2023/09/26 07:33:45;;;;;;;6.47;2.90;;;;;;;19.76;71.85;93213.91;5018140;28;20065;-79
2023/09/26 07:36:11;;;;;;;6.80;2.47;;;;;;;20.15;73.29;93208.41;5020509;28;20050;-79
2023/09/26 07:38:37;;;;;;;5.22;2.45;;;;;;;20.43;72.42;93197.97;5027525;28;20460;-79
2023/09/26 07:41:03;;;;;;;6.85;2.70;;;;;;;20.70;68.45;93212.53;5028794;28;20038;-78
2023/09/26 07:43:30;;;;;;;8.93;3.08;;;;;;;20.33;72.19;93204.50;5013466;28;20100;-79
2023/09/26 07:45:57;;;;;;;7.55;2.80;;;;;;;19.84;74.02;93208.88;5014826;28;20061;-78
2023/09/26 07:48:24;;;;;;;5.80;2.60;;;;;;;19.99;75.98;93207.47;5015327;28;20406;-78
2023/09/26 07:50:49;;;;;;;8.57;3.08;;;;;;;19.26;77.31;93214.72;5012097;28;20045;-79
2023/09/26 07:53:15;;;;;;;7.90;3.33;;;;;;;19.21;79.35;93209.63;5021169;28;20084;-79
2023/09/26 07:55:42;;;;;;;8.02;2.88;;;;;;;18.93;77.63;93211.94;5017495;28;20042;-80
2023/09/26 07:58:07;;;;;;;6.82;2.40;;;;;;;18.67;82.63;93202.22;5011844;28;20073;-80
2023/09/26 08:00:34;;;;;;;6.22;2.72;;;;;;;18.58;83.33;93206.00;5014188;28;20491;-80
2023/09/26 08:03:01;;;;;;;6.72;2.60;;;;;;;18.77;78.41;93210.91;5007655;28;20517;-81
2023/09/26 08:05:26;;;;;;;8.05;2.58;;;;;;;18.89;76.71;93209.19;5014800;28;20143;-81
2023/09/26 08:07:52;;;;;;;6.15;2.63;;;;;;;18.63;82.87;93211.13;5000555;28;20031;-82
2023/09/26 08:10:17;;;;;;;6.75;2.50;;;;;;;18.01;81.03;93215.03;5019751;28;20060;-82
2023/09/26 08:12:43;;;;;;;6.55;2.42;;;;;;;17.92;81.99;93215.03;5019367;28;20401;-80
2023/09/26 08:15:09;;;;;;;7.00;2.70;;;;;;;18.01;77.15;93215.84;5021587;28;20021;-81
2023/09/26 08:17:35;;;;;;;7.47;2.88;;;;;;;18.28;81.76;93217.34;5016027;28;20049;-81
2023/09/26 08:20:00;;;;;;;5.97;2.88;;;;;;;18.50;79.14;93213.66;5014619;28;20047;-81
2023/09/26 08:22:26;;;;;;;12.60;2.50;;;;;;;19.05;78.78;93220.00;5023385;28;20040;-80
2023/09/26 08:24:52;;;;;;;5.07;2.40;;;;;;;19.25;78.19;93225.66;5029753;28;20125;-79
2023/09/26 08:27:17;;;;;;;8.75;2.63;;;;;;;19.02;75.61;93217.22;5010112;28;20044;-81
2023/09/26 08:29:43;;;;;;;7.75;2.22;;;;;;;18.99;76.77;93217.88;5021639;28;20038;-81
2023/09/26 08:32:11;;;;;;;11.70;2.60;;;;;;;18.90;82.11;93221.31;5017332;28;20524;-79
2023/09/26 08:34:37;;;;;;;5.60;2.47;;;;;;;18.99;77.62;93231.13;5021407;28;20083;-80
2023/09/26 08:37:03;;;;;;;6.50;2.53;;;;;;;18.87;78.36;93227.28;5002301;28;20057;-80
2023/09/26 08:39:28;;;;;;;10.45;2.70;;;;;;;18.60;78.74;93227.66;5028003;28;20424;-80
2023/09/26 08:41:54;;;;;;;7.57;2.60;;;;;;;18.78;80.69;93233.69;5013798;28;20040;-79
2023/09/26 08:44:20;;;;;;;6.32;2.65;;;;;;;18.80;77.59;93236.81;5009519;28;20536;-80
2023/09/26 08:46:45;;;;;;;6.55;2.47;;;;;;;18.85;83.51;93240.09;5015397;28;20041;-79
2023/09/26 08:49:11;;;;;;;10.90;2.92;;;;;;;18.84;81.29;93238.50;5012948;28;20044;-80
2023/09/26 08:51:37;;;;;;;11.60;3.00;;;;;;;19.22;83.54;93232.41;5010435;28;20034;-81
2023/09/26 08:54:03;;;;;;;10.73;2.70;;;;;;;19.55;81.21;93240.47;4962876;28;20072;-79
2023/09/26 08:56:32;;;;;;;6.18;2.63;;;;;;;19.66;81.77;93226.81;5009910;28;20149;-79
2023/09/26 08:58:59;;;;;;;11.77;3.00;;;;;;;19.80;77.22;93234.53;5021745;28;20034;-80
2023/09/26 09:01:24;;;;;;;6.68;2.40;;;;;;;19.75;82.04;93236.28;5018195;28;20524;-80
2023/09/26 09:03:50;;;;;;;7.40;2.60;;;;;;;19.45;80.82;93234.75;5022755;28;20049;-80
2023/09/26 09:06:16;;;;;;;6.15;2.50;;;;;;;19.22;78.84;93242.25;5019860;28;20032;-80
2023/09/26 09:08:41;;;;;;;6.30;2.50;;;;;;;19.19;79.78;93235.69;5019016;28;20034;-81
2023/09/26 09:11:07;;;;;;;6.47;2.60;;;;;;;19.14;83.21;93241.19;5022728;28;20037;-81
2023/09/26 09:13:34;;;;;;;5.90;2.33;;;;;;;19.18;79.08;93236.78;5017745;28;20038;-81
2023/09/26 09:16:09;;;;;;;5.60;2.70;;;;;;;19.00;77.45;93232.69;5015864;28;20029;-81
2023/09/26 09:18:36;;;;;;;9.95;2.65;;;;;;;19.26;78.34;93237.84;5016927;28;20041;-81
2023/09/26 09:21:19;;;;;;;6.65;2.80;;;;;;;19.46;83.35;93239.75;5016584;28;20092;-81
2023/09/26 09:23:46;;;;;;;5.85;2.47;;;;;;;19.52;82.37;93237.66;4992019;28;20050;-80
2023/09/26 09:26:12;;;;;;;6.05;2.63;;;;;;;19.73;80.74;93235.81;5018471;28;20048;-82
2023/09/26 09:28:38;;;;;;;7.05;2.60;;;;;;;19.68;75.11;93233.34;5018648;28;20118;-82
2023/09/26 09:31:03;;;;;;;5.75;2.55;;;;;;;19.61;75.83;93232.28;5028093;28;20041;-82
2023/09/26 09:33:31;;;;;;;6.63;2.83;;;;;;;19.39;82.28;93241.38;5024689;28;20029;-82
2023/09/26 09:35:56;;;;;;;6.65;2.35;;;;;;;19.47;83.05;93232.56;5014869;28;20147;-82
2023/09/26 09:38:22;;;;;;;7.72;2.95;;;;;;;19.33;82.53;93228.25;5016874;28;20045;-82
2023/09/26 09:40:47;;;;;;;9.38;2.70;;;;;;;19.19;85.70;93233.03;5026484;28;20072;-82
2023/09/26 09:43:13;;;;;;;7.88;2.60;;;;;;;19.11;86.98;93241.81;5028584;28;20041;-81
2023/09/26 09:45:42;;;;;;;6.90;2.50;;;;;;;19.29;85.98;93237.97;5018341;28;20030;-84
2023/09/26 09:48:09;;;;;;;7.13;2.80;;;;;;;19.22;81.84;93237.69;5017700;28;20049;-84
2023/09/26 09:50:39;;;;;;;6.10;2.72;;;;;;;19.20;85.45;93228.50;5019670;28;20030;-82
2023/09/26 09:53:05;;;;;;;5.95;2.75;;;;;;;19.28;85.33;93235.66;5004476;28;20045;-81
2023/09/26 09:55:38;;;;;;;5.57;2.58;;;;;;;19.41;83.07;93234.63;5017780;28;20060;-81
2023/09/26 09:58:09;;;;;;;6.60;2.50;;;;;;;19.47;81.49;93237.88;5017593;28;20034;-81
2023/09/26 10:00:40;;;;;;;5.20;2.53;;;;;;;19.49;81.13;93227.69;5020346;28;20335;-82
2023/09/26 10:03:06;;;;;;;8.02;2.92;;;;;;;19.38;80.99;93223.88;5019037;28;20092;-80
2023/09/26 10:05:34;;;;;;;9.25;3.00;;;;;;;19.62;81.78;93218.69;5022609;28;20038;-82
2023/09/26 10:08:02;;;;;;;7.60;2.42;;;;;;;19.59;82.41;93219.34;5023105;28;20304;-82
2023/09/26 10:10:28;;;;;;;7.35;2.50;;;;;;;19.76;85.97;93215.81;5025657;28;20569;-79
2023/09/26 10:12:54;;;;;;;9.00;3.05;;;;;;;19.69;84.67;93207.59;5019538;28;20063;-81
2023/09/26 10:15:20;;;;;;;6.43;2.83;;;;;;;19.69;81.64;93203.03;5019501;28;20516;-81
2023/09/26 10:17:48;;;;;;;8.00;2.65;;;;;;;19.73;80.30;93211.16;5017869;28;20121;-81
2023/09/26 10:20:15;;;;;;;8.23;2.50;;;;;;;19.92;77.69;93197.38;5019733;28;20037;-80
2023/09/26 10:22:43;;;;;;;7.50;2.30;;;;;;;20.08;79.83;93200.19;5020573;28;20044;-79
2023/09/26 10:25:22;;;;;;;5.32;2.30;;;;;;;20.24;75.90;93193.19;5018580;28;20067;-79
2023/09/26 10:27:47;;;;;;;5.13;2.60;;;;;;;20.09;73.40;93193.81;5017189;28;20444;-80
2023/09/26 10:30:14;;;;;;;5.60;2.25;;;;;;;20.20;77.43;93188.81;5029940;28;20038;-80
2023/09/26 10:32:42;;;;;;;6.85;2.20;;;;;;;20.23;73.43;93191.59;5016088;28;20127;-81
2023/09/26 10:35:28;;;;;;;6.05;2.55;;;;;;;20.21;71.94;93195.72;5012766;28;20517;-81
2023/09/26 10:38:01;;;;;;;5.38;2.33;;;;;;;20.18;70.10;93187.28;5019009;28;20045;-79
2023/09/26 10:40:27;;;;;;;6.03;2.88;;;;;;;20.13;70.33;93192.03;5014455;28;20518;-80
2023/09/26 10:42:52;;;;;;;6.70;2.72;;;;;;;20.30;70.41;93188.41;5016338;28;20089;-81
2023/09/26 10:45:18;;;;;;;4.53;2.40;;;;;;;20.37;68.88;93183.31;4996498;28;20037;-79
2023/09/26 10:47:44;;;;;;;5.78;2.50;;;;;;;20.43;66.30;93190.00;5014233;28;20278;-79
2023/09/26 10:50:13;;;;;;;5.07;2.40;;;;;;;20.03;68.49;93182.59;5016816;28;20041;-79
2023/09/26 10:52:49;;;;;;;6.05;2.55;;;;;;;20.30;70.39;93186.53;5018815;28;20041;-79
2023/09/26 10:55:21;;;;;;;4.97;2.20;;;;;;;20.20;67.76;93178.19;5019005;28;20038;-80
2023/09/26 10:57:47;;;;;;;;;;;;;;;20.57;69.01;93181.72;5017965;28;20564;-79
2023/09/26 11:00:14;;;;;;;4.88;2.50;;;;;;;20.63;67.08;93185.72;5031434;28;19913;-79
2023/09/26 11:02:42;;;;;;;6.50;2.47;;;;;;;20.65;69.97;93172.06;5038772;28;20049;-79
2023/09/26 11:05:09;;;;;;;7.05;2.20;;;;;;;20.61;67.35;93177.28;5038160;28;20057;-80
2023/09/26 11:07:37;;;;;;;5.00;2.50;;;;;;;20.70;68.00;93179.84;5024963;28;20164;-78
2023/09/26 11:10:04;;;;;;;5.68;2.53;;;;;;;20.55;70.07;93176.69;5019022;28;20033;-81
2023/09/26 11:12:31;;;;;;;7.05;3.10;;;;;;;20.66;72.82;93165.66;5020579;28;20038;-79
2023/09/26 11:15:00;;;;;;;5.07;2.40;;;;;;;20.86;71.85;93178.06;5021656;28;20104;-77
2023/09/26 11:17:29;;;;;;;7.20;2.55;;;;;;;21.04;69.20;93173.31;5016100;28;20037;-79
2023/09/26 11:19:59;;;;;;;4.93;2.60;;;;;;;20.69;66.34;93178.28;5030434;28;20032;-80
2023/09/26 11:22:26;;;;;;;5.10;2.30;;;;;;;20.94;68.51;93171.06;5031929;28;20093;-80
2023/09/26 11:25:07;;;;;;;7.07;2.40;;;;;;;21.11;67.26;93172.75;5018845;28;20052;-79
2023/09/26 11:27:48;;;;;;;4.28;2.35;;;;;;;20.86;68.68;93166.66;5026823;28;20042;-78